createdAt,value
2017-06-22T00:01:07.776Z,17.97
2017-06-22T00:01:53.185Z,17.93
2017-06-22T00:02:53.207Z,17.95
2017-06-22T00:03:53.234Z,17.93
2017-06-22T00:05:07.876Z,17.89
2017-06-22T00:05:53.284Z,17.89
2017-06-22T00:06:53.311Z,17.86
2017-06-22T00:07:53.333Z,17.74
2017-06-22T00:09:53.386Z,17.68
2017-06-22T00:10:53.410Z,17.66
2017-06-22T00:11:53.462Z,17.68
2017-06-22T00:12:53.462Z,17.66
2017-06-22T00:16:53.562Z,17.63
2017-06-22T00:17:53.587Z,17.55
2017-06-22T00:18:53.613Z,17.52
2017-06-22T00:20:08.256Z,17.59
2017-06-22T00:20:53.664Z,17.59
2017-06-22T00:21:53.691Z,17.59
2017-06-22T00:22:53.719Z,17.59
2017-06-22T00:23:53.438Z,17.55
2017-06-22T00:24:53.766Z,17.46
2017-06-22T00:25:53.789Z,17.4
2017-06-22T00:26:53.816Z,17.3
2017-06-22T00:27:53.838Z,17.19
2017-06-22T00:28:53.560Z,17.16
2017-06-22T00:30:53.916Z,17.22
2017-06-22T00:31:53.943Z,17.21
2017-06-22T00:32:53.966Z,17.14
2017-06-22T00:33:53.688Z,17.21
2017-06-22T00:34:54.016Z,17.16
2017-06-22T00:35:54.041Z,17.18
2017-06-22T00:36:54.067Z,17.18
2017-06-22T00:37:54.094Z,17.14
2017-06-22T00:38:54.122Z,17.14
2017-06-22T00:39:54.141Z,17.18
2017-06-22T00:40:54.166Z,17.15
2017-06-22T00:41:54.195Z,17.21
2017-06-22T00:42:54.217Z,17.16
2017-06-22T00:43:54.242Z,17.15
2017-06-22T00:44:54.266Z,17.18
2017-06-22T00:45:54.293Z,17.16
2017-06-22T00:46:54.321Z,17.21
2017-06-22T00:47:54.342Z,17.15
2017-06-22T00:48:54.366Z,17.12
2017-06-22T00:49:54.392Z,17.11
2017-06-22T00:50:54.417Z,17.14
2017-06-22T00:52:09.060Z,17.04
2017-06-22T00:52:54.468Z,17.06
2017-06-22T00:53:54.492Z,16.93
2017-06-22T00:54:54.518Z,16.83
2017-06-22T00:55:54.542Z,16.68
2017-06-22T00:56:54.569Z,16.71
2017-06-22T00:57:54.595Z,16.73
2017-06-22T00:58:54.617Z,16.76
2017-06-22T01:00:54.667Z,16.67
2017-06-22T01:01:54.693Z,16.73
2017-06-22T01:02:54.738Z,16.71
2017-06-22T01:03:54.742Z,16.67
2017-06-22T01:04:55.070Z,16.61
2017-06-22T01:05:54.816Z,16.64
2017-06-22T01:06:54.820Z,16.58
2017-06-22T01:08:09.462Z,16.49
2017-06-22T01:08:54.869Z,16.5
2017-06-22T01:09:54.892Z,16.41
2017-06-22T01:10:54.918Z,16.33
2017-06-22T01:11:54.640Z,16.28
2017-06-22T01:12:54.664Z,16.35
2017-06-22T01:13:54.994Z,16.31
2017-06-22T01:14:55.018Z,16.33
2017-06-22T01:15:54.740Z,16.34
2017-06-22T01:16:55.072Z,16.27
2017-06-22T01:17:55.091Z,16.28
2017-06-22T01:19:09.738Z,16.24
2017-06-22T01:20:09.762Z,16.23
2017-06-22T01:20:55.169Z,16.21
2017-06-22T01:21:55.195Z,16.21
2017-06-22T01:22:55.266Z,16.17
2017-06-22T01:24:09.859Z,16.07
2017-06-22T01:24:55.266Z,16
2017-06-22T01:25:55.290Z,15.9
2017-06-22T01:26:55.317Z,15.83
2017-06-22T01:27:55.341Z,15.92
2017-06-22T01:28:55.371Z,15.86
2017-06-22T01:29:55.393Z,15.9
2017-06-22T01:30:55.416Z,15.89
2017-06-22T01:31:55.441Z,15.65
2017-06-22T01:32:55.464Z,15.72
2017-06-22T01:33:55.186Z,15.69
2017-06-22T01:34:55.211Z,15.71
2017-06-22T01:35:55.539Z,15.64
2017-06-22T01:37:10.183Z,15.64
2017-06-22T01:37:55.592Z,15.54
2017-06-22T01:38:55.309Z,15.49
2017-06-22T01:40:10.256Z,15.62
2017-06-22T01:40:55.668Z,15.69
2017-06-22T01:41:55.689Z,15.57
2017-06-22T01:42:55.712Z,15.57
2017-06-22T01:43:55.737Z,15.59
2017-06-22T01:45:55.789Z,15.68
2017-06-22T01:46:55.811Z,15.74
2017-06-22T01:47:55.836Z,15.65
2017-06-22T01:49:55.885Z,15.8
2017-06-22T01:51:55.943Z,15.83
2017-06-22T01:53:10.578Z,15.9
2017-06-22T01:53:55.681Z,15.86
2017-06-22T01:55:10.628Z,15.69
2017-06-22T01:55:56.035Z,15.75
2017-06-22T01:56:56.058Z,15.67
2017-06-22T01:57:55.781Z,15.6
2017-06-22T01:58:56.108Z,15.62
2017-06-22T01:59:56.136Z,15.47
2017-06-22T02:00:56.157Z,15.44
2017-06-22T02:01:56.186Z,15.39
2017-06-22T02:02:56.209Z,15.39
2017-06-22T02:04:56.257Z,15.39
2017-06-22T02:05:56.287Z,15.47
2017-06-22T02:07:10.621Z,15.53
2017-06-22T02:07:56.430Z,15.51
2017-06-22T02:08:56.355Z,15.41
2017-06-22T02:09:56.382Z,15.34
2017-06-22T02:10:56.455Z,15.29
2017-06-22T02:11:56.432Z,15.34
2017-06-22T02:12:56.453Z,15.27
2017-06-22T02:13:56.479Z,15.31
2017-06-22T02:14:56.199Z,15.38
2017-06-22T02:15:56.528Z,15.28
2017-06-22T02:16:56.552Z,15.29
2017-06-22T02:17:56.577Z,15.32
2017-06-22T02:18:56.296Z,15.43
2017-06-22T02:20:56.651Z,15.43
2017-06-22T02:21:56.676Z,15.38
2017-06-22T02:24:11.341Z,15.28
2017-06-22T02:24:56.752Z,15.27
2017-06-22T02:25:56.773Z,15.11
2017-06-22T02:27:11.416Z,15.06
2017-06-22T02:27:56.822Z,15.1
2017-06-22T02:28:56.847Z,14.95
2017-06-22T02:29:56.872Z,14.95
2017-06-22T02:30:56.897Z,14.92
2017-06-22T02:31:56.922Z,14.92
2017-06-22T02:32:56.944Z,14.98
2017-06-22T02:33:56.971Z,14.8
2017-06-22T02:34:56.994Z,14.75
2017-06-22T02:35:57.020Z,14.8
2017-06-22T02:36:57.043Z,14.81
2017-06-22T02:38:57.093Z,14.96
2017-06-22T02:39:57.118Z,14.96
2017-06-22T02:41:11.758Z,15.03
2017-06-22T02:41:57.165Z,15.01
2017-06-22T02:43:11.806Z,15.09
2017-06-22T02:43:57.214Z,15.1
2017-06-22T02:44:57.238Z,15.06
2017-06-22T02:45:57.263Z,15.01
2017-06-22T02:46:57.287Z,15.01
2017-06-22T02:47:57.310Z,14.94
2017-06-22T02:48:57.031Z,14.78
2017-06-22T02:49:57.358Z,14.8
2017-06-22T02:50:57.387Z,14.73
2017-06-22T02:51:57.408Z,14.73
2017-06-22T02:52:57.432Z,14.7
2017-06-22T02:53:57.456Z,14.64
2017-06-22T02:54:57.480Z,14.68
2017-06-22T02:56:12.122Z,14.61
2017-06-22T02:56:57.530Z,14.62
2017-06-22T02:57:57.554Z,14.64
2017-06-22T02:59:12.195Z,14.54
2017-06-22T02:59:57.601Z,14.61
2017-06-22T03:00:57.627Z,14.61
2017-06-22T03:01:57.652Z,14.5
2017-06-22T03:02:57.370Z,14.57
2017-06-22T03:03:57.700Z,14.47
2017-06-22T03:04:57.726Z,14.51
2017-06-22T03:05:57.747Z,14.51
2017-06-22T03:06:57.774Z,14.46
2017-06-22T03:07:57.796Z,14.42
2017-06-22T03:08:57.821Z,14.47
2017-06-22T03:09:57.843Z,14.5
2017-06-22T03:10:57.870Z,14.51
2017-06-22T03:11:57.895Z,14.46
2017-06-22T03:12:57.919Z,14.39
2017-06-22T03:13:57.942Z,14.45
2017-06-22T03:15:12.584Z,14.47
2017-06-22T03:15:57.990Z,14.43
2017-06-22T03:16:58.016Z,14.43
2017-06-22T03:17:58.040Z,14.42
2017-06-22T03:18:58.062Z,14.54
2017-06-22T03:19:58.087Z,14.51
2017-06-22T03:20:58.114Z,14.6
2017-06-22T03:21:58.136Z,14.65
2017-06-22T03:23:58.184Z,14.58
2017-06-22T03:24:58.208Z,14.68
2017-06-22T03:25:58.233Z,14.62
2017-06-22T03:27:12.876Z,14.5
2017-06-22T03:28:12.900Z,14.54
2017-06-22T03:28:58.314Z,14.46
2017-06-22T03:30:12.999Z,14.47
2017-06-22T03:30:58.354Z,14.5
2017-06-22T03:31:58.384Z,14.5
2017-06-22T03:32:58.402Z,14.46
2017-06-22T03:33:58.427Z,14.5
2017-06-22T03:34:58.452Z,14.47
2017-06-22T03:35:58.474Z,14.52
2017-06-22T03:36:58.500Z,14.55
2017-06-22T03:38:13.163Z,14.45
2017-06-22T03:38:58.548Z,14.51
2017-06-22T03:41:13.217Z,14.54
2017-06-22T03:41:58.620Z,14.62
2017-06-22T03:43:13.263Z,14.77
2017-06-22T03:43:58.669Z,14.84
2017-06-22T03:44:58.694Z,14.77
2017-06-22T03:45:58.718Z,14.94
2017-06-22T03:46:58.741Z,15.13
2017-06-22T03:47:58.766Z,15.19
2017-06-22T03:48:58.791Z,15.29
2017-06-22T03:49:58.814Z,15.39
2017-06-22T03:50:58.842Z,15.38
2017-06-22T03:51:58.862Z,15.51
2017-06-22T03:52:58.887Z,15.46
2017-06-22T03:53:58.912Z,15.46
2017-06-22T03:54:58.935Z,15.44
2017-06-22T03:56:58.984Z,15.62
2017-06-22T03:57:58.705Z,15.6
2017-06-22T03:58:58.731Z,15.56
2017-06-22T03:59:59.057Z,15.59
2017-06-22T04:00:59.081Z,15.68
2017-06-22T04:02:13.723Z,15.74
2017-06-22T04:02:59.131Z,15.76
2017-06-22T04:03:59.158Z,15.68
2017-06-22T04:04:59.181Z,15.71
2017-06-22T04:05:59.203Z,15.69
2017-06-22T04:06:59.228Z,15.65
2017-06-22T04:07:59.256Z,15.67
2017-06-22T04:08:59.278Z,15.83
2017-06-22T04:09:59.307Z,16.04
2017-06-22T04:10:59.326Z,16.34
2017-06-22T04:11:59.349Z,17.12
2017-06-22T04:13:13.995Z,18.05
2017-06-22T04:13:59.400Z,18.6
2017-06-22T04:15:14.043Z,19.54
2017-06-22T04:16:14.068Z,20.36
2017-06-22T04:16:59.175Z,20.99
2017-06-22T04:18:14.119Z,21.47
2017-06-22T04:18:59.529Z,22.14
2017-06-22T04:19:59.552Z,22.36
2017-06-22T04:20:59.582Z,23.05
2017-06-22T04:21:59.612Z,23.72
2017-06-22T04:22:59.637Z,24.2
2017-06-22T04:23:59.663Z,24
2017-06-22T04:24:59.688Z,24.1
2017-06-22T04:25:59.718Z,24.46
2017-06-22T04:26:59.746Z,24.85
2017-06-22T04:27:59.773Z,25.02
2017-06-22T04:28:59.803Z,25.47
2017-06-22T04:29:59.832Z,25.9
2017-06-22T04:31:14.503Z,26.06
2017-06-22T04:31:59.889Z,26.29
2017-06-22T04:32:59.920Z,25.99
2017-06-22T04:34:14.592Z,26.07
2017-06-22T04:34:59.979Z,26.37
2017-06-22T04:36:00.013Z,26.65
2017-06-22T04:37:00.042Z,26.88
2017-06-22T04:38:00.072Z,26.82
2017-06-22T04:39:00.101Z,26.66
2017-06-22T04:40:00.131Z,26.95
2017-06-22T04:41:00.166Z,26.8
2017-06-22T04:42:00.193Z,27.14
2017-06-22T04:43:00.225Z,27.66
2017-06-22T04:44:00.258Z,27.77
2017-06-22T04:45:00.290Z,27.67
2017-06-22T04:46:00.334Z,27.87
2017-06-22T04:47:00.358Z,28.29
2017-06-22T04:48:00.390Z,28.56
2017-06-22T04:49:00.423Z,28.54
2017-06-22T04:50:15.070Z,29.3
2017-06-22T04:51:00.495Z,29.61
2017-06-22T04:52:00.518Z,30.15
2017-06-22T04:53:00.551Z,30.32
2017-06-22T04:54:00.582Z,30.27
2017-06-22T04:55:00.617Z,30.29
2017-06-22T04:56:00.652Z,30.31
2017-06-22T04:57:00.684Z,30.11
2017-06-22T04:58:00.723Z,30.84
2017-06-22T05:00:01.035Z,31.31
2017-06-22T05:01:00.825Z,31.38
2017-06-22T05:02:00.855Z,31.62
2017-06-22T05:03:00.892Z,31.75
2017-06-22T05:04:00.925Z,31.43
2017-06-22T05:05:15.579Z,31.73
2017-06-22T05:06:00.993Z,32.03
2017-06-22T05:07:00.725Z,32.13
2017-06-22T05:08:01.065Z,32.13
2017-06-22T05:09:01.098Z,32.33
2017-06-22T05:10:00.828Z,32.35
2017-06-22T05:11:00.912Z,32.65
2017-06-22T05:12:01.212Z,33.19
2017-06-22T05:13:00.933Z,33.18
2017-06-22T05:14:00.967Z,33.39
2017-06-22T05:15:01.006Z,33.57
2017-06-22T05:16:00.735Z,33.28
2017-06-22T05:17:01.074Z,33.42
2017-06-22T05:18:01.109Z,33.59
2017-06-22T05:19:01.450Z,33.31
2017-06-22T05:20:01.182Z,33.22
2017-06-22T05:21:01.521Z,33.11
2017-06-22T05:22:01.563Z,33.38
2017-06-22T05:23:01.592Z,33.38
2017-06-22T05:24:01.626Z,33.61
2017-06-22T05:25:01.361Z,33.98
2017-06-22T05:26:01.702Z,34.27
2017-06-22T05:27:01.734Z,34.43
2017-06-22T05:28:01.469Z,34.65
2017-06-22T05:29:01.807Z,34.78
2017-06-22T05:30:01.840Z,35.06
2017-06-22T05:31:01.576Z,34.62
2017-06-22T05:32:01.610Z,34.53
2017-06-22T05:33:01.696Z,34.84
2017-06-22T05:34:16.301Z,35.06
2017-06-22T05:35:02.038Z,34.61
2017-06-22T05:36:01.757Z,34.03
2017-06-22T05:37:16.716Z,34
2017-06-22T05:38:02.140Z,34.78
2017-06-22T05:39:02.168Z,35.04
2017-06-22T05:40:01.899Z,35
2017-06-22T05:41:02.257Z,35.07
2017-06-22T05:42:02.278Z,35.34
2017-06-22T05:43:02.318Z,35.58
2017-06-22T05:44:02.352Z,35.72
2017-06-22T05:45:02.395Z,35.97
2017-06-22T05:46:02.426Z,36.38
2017-06-22T05:48:02.503Z,36.46
2017-06-22T05:49:16.855Z,36.49
2017-06-22T05:50:17.195Z,36.64
2017-06-22T05:51:02.623Z,36.93
2017-06-22T05:52:02.649Z,36.72
2017-06-22T05:53:17.308Z,36.72
2017-06-22T05:54:02.725Z,36.75
2017-06-22T05:55:02.765Z,37.2
2017-06-22T05:56:02.801Z,37.91
2017-06-22T05:57:02.837Z,37.74
2017-06-22T05:58:02.571Z,37.69
2017-06-22T05:59:02.914Z,37.82
2017-06-22T06:00:02.951Z,38.18
2017-06-22T06:01:03.039Z,38.59
2017-06-22T06:02:03.026Z,38.63
2017-06-22T06:03:03.070Z,38.81
2017-06-22T06:04:03.104Z,38.66
2017-06-22T06:05:17.763Z,38.93
2017-06-22T06:06:17.800Z,38.71
2017-06-22T06:07:03.218Z,38.4
2017-06-22T06:08:03.255Z,38.15
2017-06-22T06:09:17.915Z,38.37
2017-06-22T06:10:03.081Z,38.56
2017-06-22T06:11:03.372Z,38.54
2017-06-22T06:12:03.412Z,38.61
2017-06-22T06:13:03.447Z,38.63
2017-06-22T06:14:03.489Z,38.6
2017-06-22T06:15:03.273Z,38.88
2017-06-22T06:16:03.262Z,39.44
2017-06-22T06:17:03.604Z,39.23
2017-06-22T06:18:03.641Z,38.93
2017-06-22T06:19:03.380Z,38.81
2017-06-22T06:20:03.718Z,38.87
2017-06-22T06:21:03.760Z,38.65
2017-06-22T06:22:18.419Z,38.87
2017-06-22T06:23:03.840Z,38.84
2017-06-22T06:24:03.878Z,39.16
2017-06-22T06:25:18.537Z,39.11
2017-06-22T06:26:03.656Z,39.26
2017-06-22T06:27:03.996Z,39.51
2017-06-22T06:28:04.033Z,39.14
2017-06-22T06:29:04.074Z,38.81
2017-06-22T06:30:04.115Z,38.25
2017-06-22T06:31:04.502Z,37.86
2017-06-22T06:32:04.192Z,35.92
2017-06-22T06:33:04.232Z,35.59
2017-06-22T06:34:03.972Z,35.82
2017-06-22T06:36:04.045Z,36.41
2017-06-22T06:37:04.390Z,36.13
2017-06-22T06:38:04.125Z,36.28
2017-06-22T06:39:04.482Z,36.57
2017-06-22T06:40:19.123Z,37.46
2017-06-22T06:41:04.569Z,37.89
2017-06-22T06:42:04.279Z,37.47
2017-06-22T06:43:04.619Z,37.63
2017-06-22T06:44:04.660Z,37.49
2017-06-22T06:45:04.697Z,37.69
2017-06-22T06:46:04.736Z,38.38
2017-06-22T06:47:04.776Z,39.22
2017-06-22T06:48:04.812Z,38.87
2017-06-22T06:49:04.906Z,38.91
2017-06-22T06:50:04.893Z,39.11
2017-06-22T06:51:04.946Z,39.72
2017-06-22T06:52:04.981Z,38.78
2017-06-22T06:53:05.010Z,38.01
2017-06-22T06:54:05.058Z,37.63
2017-06-22T06:55:04.784Z,37.18
2017-06-22T06:56:05.126Z,37.07
2017-06-22T06:57:04.863Z,37.17
2017-06-22T06:58:05.205Z,37.15
2017-06-22T06:59:04.944Z,37.15
2017-06-22T07:00:05.281Z,36.87
2017-06-22T07:01:05.027Z,36.75
2017-06-22T07:02:05.375Z,36.57
2017-06-22T07:04:05.433Z,36.64
2017-06-22T07:05:05.469Z,36.59
2017-06-22T07:06:05.516Z,36.59
2017-06-22T07:07:05.548Z,36.41
2017-06-22T07:08:19.900Z,36.5
2017-06-22T07:09:05.316Z,36.35
2017-06-22T07:10:05.355Z,36.41
2017-06-22T07:11:05.395Z,36
2017-06-22T07:12:20.358Z,35.75
2017-06-22T07:13:05.771Z,35.82
2017-06-22T07:15:05.550Z,35.59
2017-06-22T07:16:05.891Z,35.65
2017-06-22T07:17:05.921Z,35.56
2017-06-22T07:18:05.963Z,35.44
2017-06-22T07:19:06.021Z,35.37
2017-06-22T07:20:06.027Z,35.29
2017-06-22T07:21:06.089Z,35.22
2017-06-22T07:22:06.105Z,35.11
2017-06-22T07:23:06.163Z,35.09
2017-06-22T07:24:06.179Z,34.75
2017-06-22T07:25:06.212Z,34.78
2017-06-22T07:26:05.950Z,34.8
2017-06-22T07:27:06.286Z,34.59
2017-06-22T07:28:20.946Z,34.53
2017-06-22T07:29:06.361Z,34.17
2017-06-22T07:30:06.393Z,33.82
2017-06-22T07:31:06.429Z,33.45
2017-06-22T07:32:06.475Z,32.84
2017-06-22T07:36:06.607Z,31.65
2017-06-22T07:37:06.644Z,31.39
2017-06-22T07:38:06.676Z,31.43
2017-06-22T07:39:06.721Z,31.43
2017-06-22T07:40:21.368Z,31.34
2017-06-22T07:41:21.403Z,31.34
2017-06-22T07:42:06.514Z,31.28
2017-06-22T07:43:06.546Z,30.92
2017-06-22T07:44:21.201Z,30.92
2017-06-22T07:45:06.634Z,30.86
2017-06-22T07:46:06.975Z,30.84
2017-06-22T07:47:06.688Z,30.99
2017-06-22T07:48:06.719Z,30.91
2017-06-22T07:49:06.753Z,31.09
2017-06-22T07:50:07.093Z,30.97
2017-06-22T07:51:07.125Z,30.79
2017-06-22T07:52:06.859Z,30.82
2017-06-22T07:54:07.225Z,30.79
2017-06-22T07:55:07.259Z,30.73
2017-06-22T07:57:07.023Z,30.94
2017-06-22T07:58:07.362Z,31.09
2017-06-22T07:59:06.786Z,31.02
2017-06-22T08:00:22.046Z,31.09
2017-06-22T08:01:07.462Z,31.12
2017-06-22T08:02:07.193Z,31.06
2017-06-22T08:03:07.526Z,31.04
2017-06-22T08:04:07.561Z,31.26
2017-06-22T08:05:07.292Z,31.26
2017-06-22T08:06:07.626Z,31.25
2017-06-22T08:07:07.662Z,31.07
2017-06-22T08:08:07.695Z,31.07
2017-06-22T08:09:07.730Z,30.83
2017-06-22T08:10:07.760Z,30.75
2017-06-22T08:11:07.795Z,30.8
2017-06-22T08:12:07.826Z,30.76
2017-06-22T08:13:07.863Z,30.6
2017-06-22T08:14:07.893Z,30.65
2017-06-22T08:15:22.848Z,30.83
2017-06-22T08:16:07.960Z,30.94
2017-06-22T08:17:07.993Z,30.77
2017-06-22T08:18:08.027Z,30.75
2017-06-22T08:19:08.062Z,30.86
2017-06-22T08:20:07.790Z,31.06
2017-06-22T08:21:08.125Z,31.02
2017-06-22T08:22:08.158Z,31.04
2017-06-22T08:24:22.848Z,31.36
2017-06-22T08:25:22.623Z,31.2
2017-06-22T08:26:22.607Z,30.91
2017-06-22T08:27:08.323Z,30.82
2017-06-22T08:28:08.354Z,30.67
2017-06-22T08:29:08.390Z,31.36
2017-06-22T08:30:08.425Z,32.08
2017-06-22T08:31:08.455Z,33.12
2017-06-22T08:32:08.537Z,33.65
2017-06-22T08:33:08.520Z,34.72
2017-06-22T08:34:08.576Z,34.97
2017-06-22T08:35:08.586Z,35.37
2017-06-22T08:36:08.319Z,35.48
2017-06-22T08:37:08.353Z,35.74
2017-06-22T08:38:08.743Z,35.31
2017-06-22T08:40:08.759Z,35.72
2017-06-22T08:42:08.839Z,36.2
2017-06-22T08:43:08.862Z,36.6
2017-06-22T08:44:08.901Z,37.03
2017-06-22T08:45:08.934Z,37.47
2017-06-22T08:46:08.691Z,37.63
2017-06-22T08:47:23.319Z,37.49
2017-06-22T08:48:09.041Z,37.46
2017-06-22T08:49:09.076Z,37.7
2017-06-22T08:50:09.116Z,36.99
2017-06-22T08:51:09.148Z,36.53
2017-06-22T08:52:08.878Z,36.19
2017-06-22T08:53:09.216Z,36.5
2017-06-22T08:54:08.948Z,36.78
2017-06-22T08:55:08.985Z,36.98
2017-06-22T08:57:09.059Z,37.17
2017-06-22T08:58:09.395Z,37.41
2017-06-22T08:59:09.467Z,37.74
2017-06-22T09:00:24.291Z,37.72
2017-06-22T09:01:24.124Z,37.72
2017-06-22T09:02:09.543Z,38.04
2017-06-22T09:03:24.197Z,37.85
2017-06-22T09:04:09.614Z,37.34
2017-06-22T09:05:09.348Z,37.86
2017-06-22T09:06:09.683Z,38.18
2017-06-22T09:07:09.725Z,38.09
2017-06-22T09:08:09.757Z,37.74
2017-06-22T09:09:24.420Z,37.7
2017-06-22T09:10:09.527Z,37.7
2017-06-22T09:11:09.570Z,37.76
2017-06-22T09:12:09.905Z,37.75
2017-06-22T09:13:24.561Z,37.46
2017-06-22T09:14:09.722Z,37.49
2017-06-22T09:15:24.634Z,36.85
2017-06-22T09:16:24.667Z,36.85
2017-06-22T09:17:09.783Z,37.25
2017-06-22T09:18:10.121Z,37.49
2017-06-22T09:19:24.775Z,37.57
2017-06-22T09:20:09.887Z,37.46
2017-06-22T09:21:09.926Z,37.82
2017-06-22T09:22:10.010Z,37.84
2017-06-22T09:23:10.301Z,37.81
2017-06-22T09:24:09.727Z,37.96
2017-06-22T09:25:10.078Z,37.85
2017-06-22T09:26:10.406Z,37.94
2017-06-22T09:27:10.443Z,38.07
2017-06-22T09:28:10.481Z,38.03
2017-06-22T09:30:10.554Z,37.72
2017-06-22T09:31:24.904Z,38.19
2017-06-22T09:32:10.628Z,38.03
2017-06-22T09:33:10.659Z,38.13
2017-06-22T09:34:10.698Z,38.04
2017-06-22T09:35:25.351Z,38.09
2017-06-22T09:36:10.468Z,38.32
2017-06-22T09:37:10.805Z,37.69
2017-06-22T09:38:10.540Z,37.34
2017-06-22T09:39:10.875Z,37.41
2017-06-22T09:40:10.918Z,37.59
2017-06-22T09:41:10.948Z,37.93
2017-06-22T09:42:10.983Z,37.63
2017-06-22T09:43:11.020Z,37.15
2017-06-22T09:44:11.056Z,37.43
2017-06-22T09:45:11.193Z,37.67
2017-06-22T09:46:11.136Z,38.09
2017-06-22T09:47:11.222Z,37.85
2017-06-22T09:48:25.818Z,37.57
2017-06-22T09:49:11.234Z,37.49
2017-06-22T09:50:25.892Z,37.59
2017-06-22T09:51:11.305Z,37.51
2017-06-22T09:52:11.345Z,37.32
2017-06-22T09:53:11.378Z,37.43
2017-06-22T09:54:11.413Z,37.46
2017-06-22T09:55:11.522Z,37.28
2017-06-22T09:57:11.220Z,37.79
2017-06-22T09:58:11.559Z,37.82
2017-06-22T09:59:11.592Z,37.82
2017-06-22T10:00:11.630Z,38
2017-06-22T10:01:11.359Z,38.07
2017-06-22T10:02:11.399Z,38.32
2017-06-22T10:03:11.734Z,38.16
2017-06-22T10:04:11.772Z,38.57
2017-06-22T10:05:11.805Z,37.86
2017-06-22T10:06:11.842Z,37.72
2017-06-22T10:07:11.575Z,38.22
2017-06-22T10:08:11.609Z,38.53
2017-06-22T10:09:11.645Z,38.11
2017-06-22T10:10:11.987Z,37.78
2017-06-22T10:11:12.020Z,37.96
2017-06-22T10:12:12.071Z,37.82
2017-06-22T10:13:12.089Z,36.8
2017-06-22T10:14:12.126Z,35.8
2017-06-22T10:15:12.163Z,35.58
2017-06-22T10:16:12.198Z,35.47
2017-06-22T10:17:12.235Z,35.33
2017-06-22T10:18:12.317Z,35.45
2017-06-22T10:19:12.303Z,35.89
2017-06-22T10:20:12.340Z,36.34
2017-06-22T10:21:12.375Z,36.01
2017-06-22T10:22:27.029Z,35.66
2017-06-22T10:23:12.143Z,35.59
2017-06-22T10:24:12.175Z,35.78
2017-06-22T10:25:12.212Z,36.25
2017-06-22T10:26:12.246Z,36.76
2017-06-22T10:27:12.283Z,36.88
2017-06-22T10:28:12.622Z,37.17
2017-06-22T10:29:12.653Z,37.5
2017-06-22T10:31:12.421Z,37.86
2017-06-22T10:32:12.763Z,38.22
2017-06-22T10:34:12.829Z,37.96
2017-06-22T10:35:27.486Z,37.97
2017-06-22T10:36:12.900Z,37.62
2017-06-22T10:37:12.934Z,37.55
2017-06-22T10:38:27.589Z,37.44
2017-06-22T10:39:13.008Z,37.31
2017-06-22T10:40:13.039Z,37.03
2017-06-22T10:41:13.076Z,36.94
2017-06-22T10:42:13.110Z,36.88
2017-06-22T10:43:13.144Z,36.57
2017-06-22T10:44:13.180Z,36.71
2017-06-22T10:45:13.299Z,36.54
2017-06-22T10:48:13.017Z,36.43
2017-06-22T10:49:13.355Z,36.34
2017-06-22T10:50:28.012Z,36.12
2017-06-22T10:51:13.426Z,35.68
2017-06-22T10:52:13.156Z,35.11
2017-06-22T10:53:13.192Z,34.61
2017-06-22T10:54:27.846Z,34.59
2017-06-22T10:55:13.565Z,34.44
2017-06-22T10:56:13.602Z,34.44
2017-06-22T10:57:13.691Z,34.82
2017-06-22T10:58:13.673Z,35
2017-06-22T10:59:13.705Z,35.23
2017-06-22T11:00:13.747Z,34
2017-06-22T11:01:13.775Z,33.54
2017-06-22T11:02:13.809Z,33.56
2017-06-22T11:03:13.899Z,33.88
2017-06-22T11:04:13.893Z,34.31
2017-06-22T11:05:13.940Z,34.13
2017-06-22T11:06:13.963Z,34.21
2017-06-22T11:07:13.999Z,34.44
2017-06-22T11:08:14.018Z,34.7
2017-06-22T11:09:14.064Z,34.8
2017-06-22T11:10:28.754Z,34.65
2017-06-22T11:11:14.122Z,34.75
2017-06-22T11:12:14.158Z,34.49
2017-06-22T11:13:14.199Z,34.31
2017-06-22T11:14:13.925Z,33.87
2017-06-22T11:15:14.258Z,33.41
2017-06-22T11:16:13.987Z,33.03
2017-06-22T11:17:14.025Z,33.11
2017-06-22T11:18:14.359Z,32.89
2017-06-22T11:19:14.397Z,32.67
2017-06-22T11:20:14.126Z,32.69
2017-06-22T11:21:14.466Z,33.19
2017-06-22T11:22:14.194Z,33.22
2017-06-22T11:23:14.229Z,33.12
2017-06-22T11:24:14.925Z,33.14
2017-06-22T11:25:29.219Z,32.99
2017-06-22T11:26:14.633Z,32.97
2017-06-22T11:27:14.667Z,33.04
2017-06-22T11:28:14.697Z,32.94
2017-06-22T11:29:14.734Z,32.67
2017-06-22T11:30:14.768Z,32.47
2017-06-22T11:31:14.802Z,32.63
2017-06-22T11:32:14.834Z,32.56
2017-06-22T11:33:14.868Z,32.66
2017-06-22T11:36:14.971Z,32.45
2017-06-22T11:37:15.004Z,32.51
2017-06-22T11:38:15.036Z,32.44
2017-06-22T11:39:15.070Z,32.37
2017-06-22T11:40:14.800Z,32.01
2017-06-22T11:41:14.833Z,32
2017-06-22T11:42:14.865Z,31.86
2017-06-22T11:43:15.202Z,31.89
2017-06-22T11:44:14.932Z,31.8
2017-06-22T11:45:15.270Z,31.85
2017-06-22T11:46:15.002Z,31.8
2017-06-22T11:47:15.388Z,31.63
2017-06-22T11:49:15.098Z,31.48
2017-06-22T11:50:14.829Z,31.56
2017-06-22T11:52:15.504Z,31.34
2017-06-22T11:53:14.926Z,31.36
2017-06-22T11:54:30.186Z,31.09
2017-06-22T11:55:15.601Z,31.17
2017-06-22T11:56:15.631Z,31.14
2017-06-22T11:57:30.284Z,30.92
2017-06-22T11:58:15.698Z,30.79
2017-06-22T11:59:15.728Z,30.8
2017-06-22T12:00:15.762Z,30.84
2017-06-22T12:01:15.794Z,30.72
2017-06-22T12:02:15.826Z,30.46
2017-06-22T12:03:15.860Z,30.19
2017-06-22T12:04:15.587Z,30.1
2017-06-22T12:06:15.957Z,29.94
2017-06-22T12:07:15.988Z,29.82
2017-06-22T12:08:16.022Z,29.79
2017-06-22T12:09:16.055Z,29.73
2017-06-22T12:10:16.086Z,29.85
2017-06-22T12:11:16.118Z,29.87
2017-06-22T12:12:16.150Z,29.95
2017-06-22T12:13:30.498Z,29.76
2017-06-22T12:14:16.214Z,29.78
2017-06-22T12:15:16.248Z,29.53
2017-06-22T12:16:15.975Z,29.46
2017-06-22T12:17:16.010Z,29.34
2017-06-22T12:18:16.038Z,29.26
2017-06-22T12:20:15.798Z,28.81
2017-06-22T12:21:16.135Z,28.76
2017-06-22T12:22:15.863Z,28.73
2017-06-22T12:23:16.249Z,28.52
2017-06-22T12:24:16.533Z,28.48
2017-06-22T12:25:16.564Z,28.36
2017-06-22T12:26:31.213Z,28.07
2017-06-22T12:27:16.627Z,27.63
2017-06-22T12:28:16.658Z,27.32
2017-06-22T12:29:31.309Z,26.82
2017-06-22T12:30:16.721Z,26.73
2017-06-22T12:31:16.753Z,26.37
2017-06-22T12:32:16.788Z,25.73
2017-06-22T12:33:16.816Z,25.45
2017-06-22T12:34:16.846Z,25.28
2017-06-22T12:35:16.880Z,25.24
2017-06-22T12:36:16.910Z,25.18
2017-06-22T12:37:16.943Z,24.93
2017-06-22T12:38:16.970Z,24.55
2017-06-22T12:39:17.002Z,24.47
2017-06-22T12:42:17.097Z,24.46
2017-06-22T12:43:17.134Z,24.2
2017-06-22T12:44:17.153Z,24.1
2017-06-22T12:45:31.805Z,23.88
2017-06-22T12:46:17.217Z,23.93
2017-06-22T12:47:17.247Z,23.65
2017-06-22T12:48:17.277Z,23.22
2017-06-22T12:49:17.308Z,22.72
2017-06-22T12:50:17.338Z,22.36
2017-06-22T12:51:17.365Z,22.09
2017-06-22T12:52:17.395Z,21.61
2017-06-22T12:53:17.446Z,21.37
2017-06-22T12:54:17.505Z,20.92
2017-06-22T12:55:17.484Z,20.62
2017-06-22T12:56:17.515Z,20.33
2017-06-22T12:57:17.544Z,20.26
2017-06-22T12:58:17.577Z,20.29
2017-06-22T12:59:17.601Z,20.17
2017-06-22T13:00:32.252Z,19.76
2017-06-22T13:01:17.661Z,19.62
2017-06-22T13:02:17.691Z,19.59
2017-06-22T13:03:17.718Z,19.76
2017-06-22T13:04:17.749Z,19.74
2017-06-22T13:05:17.476Z,19.74
2017-06-22T13:06:17.813Z,19.74
2017-06-22T13:07:17.229Z,19.55
2017-06-22T13:08:17.861Z,19.59
2017-06-22T13:09:17.889Z,19.59
2017-06-22T13:10:17.918Z,19.59
2017-06-22T13:12:17.983Z,19.69
2017-06-22T13:13:32.317Z,19.76
2017-06-22T13:14:18.030Z,19.84
2017-06-22T13:15:18.061Z,19.78
2017-06-22T13:16:17.480Z,19.8
2017-06-22T13:17:17.808Z,19.69
2017-06-22T13:18:18.142Z,19.74
2017-06-22T13:19:18.168Z,19.76
2017-06-22T13:20:18.197Z,19.8
2017-06-22T13:21:18.224Z,19.95
2017-06-22T13:22:18.252Z,20.05
2017-06-22T13:23:18.281Z,20.13
2017-06-22T13:24:18.307Z,20.08
2017-06-22T13:25:18.332Z,20.11
2017-06-22T13:26:18.361Z,20.05
2017-06-22T13:27:18.389Z,19.92
2017-06-22T13:28:33.036Z,19.88
2017-06-22T13:29:33.062Z,19.77
2017-06-22T13:30:18.474Z,19.58
2017-06-22T13:31:18.497Z,19.69
2017-06-22T13:32:33.145Z,19.62
2017-06-22T13:33:18.554Z,19.59
2017-06-22T13:34:18.582Z,19.41
2017-06-22T13:35:18.606Z,19.33
2017-06-22T13:36:18.638Z,19.22
2017-06-22T13:37:18.662Z,19.23
2017-06-22T13:38:18.690Z,19.19
2017-06-22T13:39:18.411Z,19.19
2017-06-22T13:40:18.745Z,19
2017-06-22T13:41:18.778Z,19.02